Time;durP1;ratioP1;P1;durP2;ratioP2;P2;SDS_P1;SDS_P2;PMS_P1;PMS_P2;Temp;Humidity;BMP_temperature;BMP_pressure;BME280_temperature;BME280_humidity;BME280_pressure;Samples;Min_cycle;Max_cycle;Signal;HPM_P1;HPM_P2
2021/12/14 00:01:30;;;;;;;10.78;6.05;;;;;;;3.61;100.00;148572.09;1752057;80;21001;-53
2021/12/14 00:04:00;;;;;;;17.62;6.90;;;;;;;3.61;100.00;148572.09;1740676;80;21040;-53
2021/12/14 00:06:27;;;;;;;10.50;6.78;;;;;;;3.61;100.00;148572.09;1700930;80;21493;-54
2021/12/14 00:08:59;;;;;;;17.77;5.83;;;;;;;3.60;100.00;148569.50;1752612;80;21211;-54
2021/12/14 00:16:39;;;;;;;12.55;7.42;;;;;;;3.56;100.00;148560.50;1752374;80;21092;-54
2021/12/14 00:19:06;;;;;;;12.82;6.87;;;;;;;3.54;100.00;148554.03;1717477;80;21061;-54
2021/12/14 00:21:33;;;;;;;10.78;6.55;;;;;;;3.51;100.00;148547.56;1749211;80;21148;-54
2021/12/14 00:24:06;;;;;;;11.83;6.78;;;;;;;3.49;100.00;148541.12;1748188;80;21676;-54
2021/12/14 00:26:43;;;;;;;12.58;6.62;;;;;;;3.47;100.00;148537.23;1743852;80;21426;-54
2021/12/14 00:29:31;;;;;;;10.95;6.47;;;;;;;3.46;100.00;148533.39;1745865;80;21100;-54
2021/12/14 00:32:01;;;;;;;16.12;6.97;;;;;;;3.41;100.00;148521.77;1733695;80;21077;-53
2021/12/14 00:34:43;;;;;;;12.20;6.78;;;;;;;3.41;100.00;148523.03;1743415;80;21980;-53
2021/12/14 00:37:08;;;;;;;12.73;6.47;;;;;;;3.41;100.00;148523.03;1746340;80;21107;-53
2021/12/14 00:39:34;;;;;;;9.03;6.08;;;;;;;3.40;100.00;148520.45;1745187;80;21032;-54
2021/12/14 00:42:03;;;;;;;13.93;6.58;;;;;;;3.41;100.00;148521.77;1751631;80;21509;-54
2021/12/14 00:44:32;;;;;;;13.15;6.37;;;;;;;3.42;100.00;148524.34;1744061;80;21419;-54
2021/12/14 00:47:00;;;;;;;12.35;6.95;;;;;;;3.39;100.00;148517.88;1744541;80;21126;-54
2021/12/14 00:49:27;;;;;;;14.00;7.25;;;;;;;3.38;100.00;148514.03;1744306;80;21028;-54
2021/12/14 00:51:56;;;;;;;12.90;7.58;;;;;;;3.37;100.00;148512.72;1746582;80;21055;-54
2021/12/14 00:54:23;;;;;;;15.60;7.87;;;;;;;3.38;100.00;148515.30;1706366;82;20980;-54
2021/12/14 00:56:50;;;;;;;18.07;8.03;;;;;;;3.40;100.00;148520.45;1712455;82;21319;-54
2021/12/14 00:59:19;;;;;;;15.23;8.30;;;;;;;3.42;100.00;148524.34;1670593;84;21645;-54
2021/12/14 01:01:54;;;;;;;20.55;7.80;;;;;;;3.43;100.00;148528.23;1751228;80;21028;-53
2021/12/14 01:04:29;;;;;;;17.77;8.08;;;;;;;3.43;100.00;148528.23;1745243;80;21113;-58
2021/12/14 01:06:56;;;;;;;14.18;7.35;;;;;;;3.44;100.00;148530.81;1746439;80;21096;-57
2021/12/14 01:09:28;;;;;;;14.53;7.92;;;;;;;3.46;100.00;148534.66;1749989;80;21481;-53
2021/12/14 01:11:59;;;;;;;18.55;8.88;;;;;;;3.46;100.00;148533.39;1746754;79;21092;-58
2021/12/14 01:14:39;;;;;;;29.63;8.25;;;;;;;3.47;100.00;148537.23;1741034;80;21088;-55
2021/12/14 01:17:10;;;;;;;13.70;7.42;;;;;;;3.49;100.00;148541.12;1743214;80;21526;-55
2021/12/14 01:19:36;;;;;;;13.45;8.58;;;;;;;3.50;100.00;148543.72;1738147;80;21420;-56
2021/12/14 01:22:46;;;;;;;18.77;8.50;;;;;;;3.49;100.00;148541.12;1743459;80;21112;-56
2021/12/14 01:27:33;;;;;;;16.90;8.38;;;;;;;3.51;100.00;148546.28;1736349;80;21037;-57
2021/12/14 01:30:04;;;;;;;11.18;7.40;;;;;;;3.52;100.00;148550.14;1743533;80;21036;-57
2021/12/14 01:32:35;;;;;;;20.17;8.25;;;;;;;3.52;100.00;148550.14;1740258;80;21135;-57
2021/12/14 01:35:01;;;;;;;20.68;7.90;;;;;;;3.53;100.00;148551.45;1741402;80;21218;-57
2021/12/14 01:37:39;;;;;;;15.43;7.47;;;;;;;3.55;100.00;148556.61;1746415;80;21550;-57
2021/12/14 01:42:28;;;;;;;18.23;7.90;;;;;;;3.57;100.00;148561.77;1747262;80;21061;-57
2021/12/14 01:45:00;;;;;;;15.55;7.58;;;;;;;3.59;100.00;148566.92;1747032;80;21056;-57
2021/12/14 01:47:34;;;;;;;16.17;7.47;;;;;;;3.60;100.00;148569.50;1750240;80;21036;-58
2021/12/14 01:50:17;;;;;;;15.78;7.78;;;;;;;3.60;100.00;148568.25;1683829;80;22172;-57
2021/12/14 01:52:51;;;;;;;22.30;8.35;;;;;;;3.58;100.00;148565.66;1750540;80;21390;-57
2021/12/14 01:55:25;;;;;;;16.25;7.47;;;;;;;3.59;100.00;148566.92;1749869;80;21084;-58
2021/12/14 01:57:55;;;;;;;11.35;7.28;;;;;;;3.57;100.00;148563.08;1741217;80;21072;-57
2021/12/14 02:00:27;;;;;;;20.92;7.72;;;;;;;3.59;100.00;148566.92;1742078;80;21080;-59
2021/12/14 02:02:54;;;;;;;19.80;7.80;;;;;;;3.60;100.00;148568.25;1748978;80;21064;-58
2021/12/14 02:05:37;;;;;;;13.25;7.50;;;;;;;3.59;100.00;148566.92;1749573;80;21049;-58
2021/12/14 02:08:22;;;;;;;15.43;7.80;;;;;;;3.58;100.00;148564.34;1744474;80;21402;-57
2021/12/14 02:10:49;;;;;;;16.40;7.40;;;;;;;3.58;100.00;148564.34;1743504;80;21042;-58
2021/12/14 02:13:32;;;;;;;15.40;6.83;;;;;;;3.56;100.00;148559.19;1709384;80;22213;-58
2021/12/14 02:16:00;;;;;;;14.00;7.00;;;;;;;3.54;100.00;148555.34;1747358;80;21132;-58
2021/12/14 02:18:29;;;;;;;14.43;6.75;;;;;;;3.55;100.00;148556.61;1748993;80;21025;-58
2021/12/14 02:21:10;;;;;;;15.58;6.65;;;;;;;3.54;100.00;148554.03;1743947;80;21104;-57
2021/12/14 02:23:40;;;;;;;11.55;6.67;;;;;;;3.54;100.00;148555.34;1749095;80;21056;-58
2021/12/14 02:26:10;;;;;;;18.35;6.42;;;;;;;3.52;100.00;148550.14;1752543;80;21529;-57
2021/12/14 02:28:37;;;;;;;15.72;6.75;;;;;;;3.53;100.00;148551.45;1740287;80;21141;-59
2021/12/14 02:31:07;;;;;;;9.55;6.05;;;;;;;3.52;100.00;148550.14;1737561;80;21052;-58
2021/12/14 02:33:37;;;;;;;12.53;6.05;;;;;;;3.52;100.00;148550.14;1747887;80;21006;-57
2021/12/14 02:36:08;;;;;;;20.80;6.28;;;;;;;3.53;100.00;148551.45;1748249;80;21028;-57
2021/12/14 02:38:45;;;;;;;9.38;5.20;;;;;;;3.53;100.00;148551.45;1742775;80;21041;-57
2021/12/14 02:41:12;;;;;;;10.10;5.80;;;;;;;3.51;100.00;148546.28;1745722;80;21710;-57
2021/12/14 02:43:53;;;;;;;13.10;6.92;;;;;;;3.51;100.00;148546.28;1741096;80;21009;-57
2021/12/14 02:46:26;;;;;;;12.43;6.60;;;;;;;3.49;100.00;148542.41;1747876;80;21675;-58
2021/12/14 02:48:58;;;;;;;11.15;6.70;;;;;;;3.48;100.00;148539.81;1755806;80;21032;-57
2021/12/14 02:51:37;;;;;;;11.68;7.08;;;;;;;3.49;100.00;148542.41;1748939;80;22209;-57
2021/12/14 02:54:15;;;;;;;13.65;7.25;;;;;;;3.48;100.00;148539.81;1745402;80;21059;-57
2021/12/14 02:56:44;;;;;;;13.50;7.33;;;;;;;3.46;100.00;148533.39;1742023;80;21525;-57
2021/12/14 02:59:14;;;;;;;12.33;7.25;;;;;;;3.50;100.00;148543.72;1748406;80;21092;-57
2021/12/14 03:01:42;;;;;;;15.93;7.75;;;;;;;3.51;100.00;148546.28;1759371;80;21600;-57
2021/12/14 03:04:10;;;;;;;15.85;7.62;;;;;;;3.52;100.00;148548.87;1742477;80;21345;-57
2021/12/14 03:06:47;;;;;;;28.25;7.28;;;;;;;3.53;100.00;148551.45;1745020;80;21613;-57
2021/12/14 03:12:12;;;;;;;18.82;7.72;;;;;;;3.57;100.00;148561.77;1745318;80;21673;-57
2021/12/14 03:14:43;;;;;;;18.23;7.45;;;;;;;3.58;100.00;148565.66;1753094;80;21571;-59
2021/12/14 03:17:09;;;;;;;11.48;7.25;;;;;;;3.59;100.00;148566.92;1722521;80;21070;-57
2021/12/14 03:19:36;;;;;;;11.53;6.92;;;;;;;3.57;100.00;148561.77;1746017;80;21093;-57
2021/12/14 03:22:08;;;;;;;15.25;7.12;;;;;;;3.56;100.00;148559.19;1690274;83;21559;-59
2021/12/14 03:24:38;;;;;;;15.18;7.80;;;;;;;3.56;100.00;148559.19;1673837;82;21087;-58
2021/12/14 03:27:07;;;;;;;18.30;7.85;;;;;;;3.56;100.00;148560.50;1657232;82;21175;-58
2021/12/14 03:29:34;;;;;;;15.80;7.45;;;;;;;3.56;100.00;148559.19;1720349;80;21065;-57
2021/12/14 03:32:00;;;;;;;15.28;7.67;;;;;;;3.54;100.00;148555.34;1697317;80;21198;-56
2021/12/14 03:34:33;;;;;;;11.38;6.62;;;;;;;3.54;100.00;148554.03;1736701;80;21068;-57
2021/12/14 03:37:05;;;;;;;13.48;7.58;;;;;;;3.54;100.00;148554.03;1744316;80;21123;-60
2021/12/14 03:39:40;;;;;;;16.95;8.15;;;;;;;3.54;100.00;148555.34;1750157;80;21082;-57
2021/12/14 03:42:18;;;;;;;14.47;7.67;;;;;;;3.55;100.00;148556.61;1744057;80;21370;-57
2021/12/14 03:44:49;;;;;;;13.75;7.58;;;;;;;3.54;100.00;148554.03;1741747;80;21157;-59
2021/12/14 03:47:23;;;;;;;13.10;7.83;;;;;;;3.54;100.00;148555.34;1747978;80;22253;-57
2021/12/14 03:49:54;;;;;;;13.50;6.87;;;;;;;3.55;100.00;148556.61;1739645;80;21087;-57
2021/12/14 03:52:28;;;;;;;19.12;7.60;;;;;;;3.53;100.00;148552.72;1746982;80;21529;-57
2021/12/14 03:54:56;;;;;;;14.33;7.90;;;;;;;3.54;100.00;148554.03;1709014;80;21095;-57
2021/12/14 03:57:23;;;;;;;13.95;7.83;;;;;;;3.50;100.00;148544.97;1745901;80;21096;-57
2021/12/14 03:59:50;;;;;;;13.10;7.45;;;;;;;3.52;100.00;148550.14;1748814;80;20977;-57
2021/12/14 04:02:18;;;;;;;18.65;8.43;;;;;;;3.51;100.00;148546.28;1743400;80;21103;-58
2021/12/14 04:05:04;;;;;;;17.15;7.92;;;;;;;3.50;100.00;148543.72;1742702;80;20998;-58
2021/12/14 04:07:25;;;;;;;15.48;7.12;;;;;;;3.51;100.00;148546.28;1744158;80;21036;-57
2021/12/14 04:09:54;;;;;;;14.30;8.55;;;;;;;3.50;100.00;148543.72;1749923;80;21087;-58
2021/12/14 04:12:21;;;;;;;14.90;8.05;;;;;;;3.51;100.00;148546.28;1740385;80;21077;-58
2021/12/14 04:14:55;;;;;;;16.37;7.70;;;;;;;3.49;100.00;148542.41;1746406;80;21089;-58
2021/12/14 04:17:27;;;;;;;16.50;8.03;;;;;;;3.48;100.00;148539.81;1743183;80;21557;-58
2021/12/14 04:19:55;;;;;;;14.33;6.80;;;;;;;3.47;100.00;148537.23;1749173;80;21412;-58
2021/12/14 04:22:25;;;;;;;14.87;7.67;;;;;;;3.46;100.00;148534.66;1747768;80;21098;-58
2021/12/14 04:24:57;;;;;;;17.87;8.63;;;;;;;3.47;100.00;148535.97;1750892;79;21028;-58
2021/12/14 04:27:26;;;;;;;16.48;8.63;;;;;;;3.49;100.00;148541.12;1745726;80;21060;-57
2021/12/14 04:29:54;;;;;;;18.40;8.08;;;;;;;3.51;100.00;148546.28;1747875;80;21076;-57
2021/12/14 04:32:21;;;;;;;17.25;8.53;;;;;;;3.52;100.00;148548.87;1749694;80;21152;-57
2021/12/14 04:34:49;;;;;;;18.60;8.43;;;;;;;3.52;100.00;148550.14;1742693;80;21471;-57
2021/12/14 04:37:16;;;;;;;15.60;7.83;;;;;;;3.53;100.00;148551.45;1744195;80;21435;-59
2021/12/14 04:39:55;;;;;;;26.20;8.28;;;;;;;3.54;100.00;148554.03;1747488;80;21059;-55
2021/12/14 04:53:40;;;;;;;14.98;7.33;;;;;;;3.55;100.00;148557.92;1746290;80;23115;-54
2021/12/14 04:56:13;;;;;;;17.50;7.67;;;;;;;3.54;100.00;148554.03;1708042;81;21027;-54
2021/12/14 04:58:44;;;;;;;16.97;8.00;;;;;;;3.52;100.00;148548.87;1750362;80;21005;-54
2021/12/14 05:01:11;;;;;;;22.95;7.40;;;;;;;3.52;100.00;148550.14;1743329;80;21794;-54
2021/12/14 05:03:46;;;;;;;16.80;6.85;;;;;;;3.53;100.00;148551.45;1743320;80;21013;-55
2021/12/14 05:06:19;;;;;;;11.68;6.58;;;;;;;3.52;100.00;148548.87;1745099;80;21116;-54
2021/12/14 05:11:18;;;;;;;15.68;7.87;;;;;;;3.54;100.00;148554.03;1744858;80;21758;-54
2021/12/14 05:13:50;;;;;;;14.03;7.28;;;;;;;3.54;100.00;148554.03;1750947;80;21541;-54
2021/12/14 05:16:22;;;;;;;13.75;7.67;;;;;;;3.53;100.00;148551.45;1738795;80;21115;-53
2021/12/14 05:18:55;;;;;;;23.27;8.13;;;;;;;3.54;100.00;148554.03;1714360;81;21096;-54
2021/12/14 05:21:29;;;;;;;18.77;8.08;;;;;;;3.55;100.00;148556.61;1740880;80;21423;-55
2021/12/14 05:23:57;;;;;;;15.85;7.47;;;;;;;3.56;100.00;148559.19;1742618;80;21044;-55
2021/12/14 05:26:24;;;;;;;20.08;9.25;;;;;;;3.57;100.00;148561.77;1749406;80;21479;-54
2021/12/14 05:28:52;;;;;;;19.85;8.45;;;;;;;3.54;100.00;148555.34;1744504;80;21064;-54
2021/12/14 05:31:21;;;;;;;23.62;8.98;;;;;;;3.54;100.00;148554.03;1744158;80;21059;-54
2021/12/14 05:33:49;;;;;;;20.02;7.83;;;;;;;3.53;100.00;148551.45;1737212;79;21040;-55
2021/12/14 05:36:20;;;;;;;20.12;8.23;;;;;;;3.52;100.00;148548.87;1754735;79;20961;-54
2021/12/14 05:39:06;;;;;;;14.93;7.62;;;;;;;3.49;100.00;148542.41;1765368;79;21131;-54
2021/12/14 05:44:22;;;;;;;16.35;8.43;;;;;;;3.48;100.00;148538.56;1766543;79;21047;-55
2021/12/14 05:46:51;;;;;;;19.40;7.83;;;;;;;3.46;100.00;148533.39;1762303;79;21463;-55
2021/12/14 05:49:24;;;;;;;17.55;9.63;;;;;;;3.49;100.00;148541.12;1751555;79;21240;-54
2021/12/14 05:51:52;;;;;;;16.77;9.10;;;;;;;3.49;100.00;148541.12;1730863;79;21111;-54
2021/12/14 05:54:27;;;;;;;19.32;9.73;;;;;;;3.49;100.00;148541.12;1768907;79;21170;-54
2021/12/14 05:56:56;;;;;;;17.87;9.20;;;;;;;3.48;100.00;148539.81;1757840;79;21060;-54
2021/12/14 05:59:27;;;;;;;16.25;8.98;;;;;;;3.48;100.00;148538.56;1765010;79;21067;-54
2021/12/14 06:01:55;;;;;;;19.67;9.08;;;;;;;3.48;100.00;148539.81;1770001;79;21051;-54
2021/12/14 06:04:31;;;;;;;24.02;10.90;;;;;;;3.47;100.00;148537.23;1756758;79;21255;-55
2021/12/14 06:06:58;;;;;;;21.55;10.38;;;;;;;3.49;100.00;148541.12;1765662;79;22125;-55
2021/12/14 06:09:31;;;;;;;19.23;10.00;;;;;;;3.48;100.00;148539.81;1767374;79;21471;-55
2021/12/14 06:12:11;;;;;;;20.82;10.28;;;;;;;3.50;100.00;148543.72;1762043;79;20980;-54
2021/12/14 06:14:50;;;;;;;20.72;9.65;;;;;;;3.52;100.00;148548.87;1766455;79;20972;-54
2021/12/14 06:17:12;;;;;;;20.60;10.38;;;;;;;3.51;100.00;148546.28;1764518;79;21149;-54
2021/12/14 06:19:41;;;;;;;24.98;9.28;;;;;;;3.53;100.00;148551.45;1759128;79;20961;-54
2021/12/14 06:22:14;;;;;;;20.50;10.20;;;;;;;3.53;100.00;148551.45;1711452;83;21063;-55
2021/12/14 06:24:44;;;;;;;24.35;10.58;;;;;;;3.53;100.00;148552.72;1693860;83;21036;-54
2021/12/14 06:27:15;;;;;;;22.87;10.88;;;;;;;3.55;100.00;148557.92;1724521;81;21075;-54
2021/12/14 06:29:45;;;;;;;28.23;11.28;;;;;;;3.57;100.00;148561.77;1697912;83;21850;-54
2021/12/14 06:32:16;;;;;;;24.40;12.37;;;;;;;3.58;100.00;148565.66;1744095;80;21072;-54
2021/12/14 06:34:51;;;;;;;25.35;11.60;;;;;;;3.61;100.00;148572.09;1745282;80;21449;-54
2021/12/14 06:37:53;;;;;;;29.63;12.25;;;;;;;3.63;100.00;148575.97;1740392;80;21080;-58
2021/12/14 06:40:26;;;;;;;29.42;11.97;;;;;;;3.64;100.00;148579.81;1747223;80;21064;-60
2021/12/14 06:42:59;;;;;;;26.95;11.85;;;;;;;3.66;100.00;148583.72;1744201;80;21127;-58
2021/12/14 06:45:39;;;;;;;25.72;12.33;;;;;;;3.68;100.00;148588.88;1750816;80;21135;-57
2021/12/14 06:48:16;;;;;;;24.47;12.43;;;;;;;3.68;100.00;148588.88;1740837;80;21073;-58
2021/12/14 06:50:48;;;;;;;24.65;13.32;;;;;;;3.68;100.00;148590.19;1751254;80;21127;-57
2021/12/14 06:53:18;;;;;;;22.98;11.05;;;;;;;3.69;100.00;148591.45;1748549;80;21537;-57
2021/12/14 06:56:00;;;;;;;19.73;10.68;;;;;;;3.72;100.00;148600.50;1673094;80;21118;-59
2021/12/14 06:58:58;;;;;;;27.60;11.22;;;;;;;3.75;100.00;148605.66;1738688;80;21028;-58
2021/12/14 07:01:43;;;;;;;24.77;11.25;;;;;;;3.79;100.00;148617.30;1736923;80;21095;-57
2021/12/14 07:04:14;;;;;;;24.95;10.65;;;;;;;3.81;100.00;148621.14;1735443;80;21612;-60
2021/12/14 07:06:55;;;;;;;20.23;10.30;;;;;;;3.83;100.00;148626.30;1710337;80;39474;-59
2021/12/14 07:09:28;;;;;;;22.50;12.28;;;;;;;3.82;100.00;148623.72;1736200;80;21143;-58
2021/12/14 07:12:03;;;;;;;21.15;11.50;;;;;;;3.80;100.00;148618.56;1741550;80;21083;-58
2021/12/14 07:14:46;;;;;;;21.23;10.88;;;;;;;3.79;100.00;148615.98;1742519;80;21056;-58
2021/12/14 07:17:28;;;;;;;26.33;12.70;;;;;;;3.81;100.00;148622.45;1715453;80;21116;-57
2021/12/14 07:20:07;;;;;;;22.52;10.75;;;;;;;3.83;100.00;148626.30;1693721;82;21155;-58
2021/12/14 07:22:44;;;;;;;26.10;11.40;;;;;;;3.83;100.00;148626.30;1731843;80;21236;-59
2021/12/14 07:25:18;;;;;;;26.93;12.07;;;;;;;3.84;100.00;148630.19;1732587;80;21183;-59
2021/12/14 07:27:59;;;;;;;29.03;11.47;;;;;;;3.88;100.00;148639.25;1698771;82;21133;-59
2021/12/14 07:30:53;;;;;;;29.85;12.00;;;;;;;3.92;100.00;148648.25;1697093;82;21080;-60
2021/12/14 07:33:30;;;;;;;29.12;11.83;;;;;;;3.96;100.00;148658.58;1705363;82;21123;-59
2021/12/14 07:36:00;;;;;;;29.57;13.25;;;;;;;3.96;100.00;148658.58;1703884;82;21600;-58
2021/12/14 07:38:51;;;;;;;25.48;12.43;;;;;;;3.98;100.00;148663.78;1706192;82;21124;-55
2021/12/14 07:41:43;;;;;;;25.95;11.33;;;;;;;4.01;100.00;148672.78;1708082;82;21121;-56
2021/12/14 07:44:35;;;;;;;19.30;9.35;;;;;;;4.04;100.00;148677.95;1696106;82;21151;-53
2021/12/14 07:47:09;;;;;;;19.42;9.00;;;;;;;3.99;100.00;148667.63;1699192;82;21461;-53
2021/12/14 07:49:54;;;;;;;21.35;10.58;;;;;;;3.97;100.00;148661.16;1716805;82;22015;-54
2021/12/14 07:52:35;;;;;;;24.07;10.95;;;;;;;3.94;100.00;148654.73;1698663;82;21107;-54
2021/12/14 07:55:12;;;;;;;23.45;10.63;;;;;;;3.97;100.00;148662.47;1711895;82;21064;-55
2021/12/14 07:57:39;;;;;;;27.37;12.00;;;;;;;3.98;100.00;148665.05;1708965;82;21087;-55
2021/12/14 08:00:23;;;;;;;26.52;12.45;;;;;;;4.00;100.00;148670.20;1702939;82;21161;-58
2021/12/14 08:02:55;;;;;;;22.90;11.57;;;;;;;4.06;100.00;148684.42;1682074;83;22038;-54
2021/12/14 08:05:28;;;;;;;32.63;13.38;;;;;;;4.09;100.00;148690.84;1703607;82;20994;-58
2021/12/14 08:08:31;;;;;;;28.07;11.70;;;;;;;4.15;100.00;148706.38;1677135;82;21553;-58
2021/12/14 08:11:08;;;;;;;22.75;11.05;;;;;;;4.20;100.00;148719.28;1696628;82;21090;-57
2021/12/14 08:13:25;;;;;;;20.65;10.88;;;;;;;4.23;100.00;148727.03;1703683;82;21075;-59
2021/12/14 08:15:57;;;;;;;23.10;11.30;;;;;;;4.23;100.00;148727.03;1693277;82;21203;-55
2021/12/14 08:18:33;;;;;;;39.55;12.37;;;;;;;4.22;100.00;148724.44;1701769;82;21659;-58
2021/12/14 08:21:05;;;;;;;30.32;13.65;;;;;;;4.22;100.00;148724.44;1700639;82;21008;-54
2021/12/14 08:23:37;;;;;;;27.35;12.78;;;;;;;4.22;100.00;148724.44;1700007;82;21110;-54
2021/12/14 08:26:12;;;;;;;38.05;13.93;;;;;;;4.22;100.00;148724.44;1697281;82;21134;-56
2021/12/14 08:28:58;;;;;;;;;;;;;;;4.19;100.00;148716.70;1703283;82;21591;-59
2021/12/14 08:31:38;;;;;;;;;;;;;;;4.17;100.00;148711.53;1700270;82;20350;-59
2021/12/14 08:34:09;;;;;;;20.27;10.72;;;;;;;4.11;100.00;148697.33;1696680;82;20237;-60
2021/12/14 08:36:50;;;;;;;20.70;10.20;;;;;;;4.08;100.00;148688.27;1702075;82;21058;-59
2021/12/14 08:39:27;;;;;;;24.10;11.10;;;;;;;4.07;100.00;148687.00;1706015;82;21154;-59
2021/12/14 08:42:11;;;;;;;24.65;10.23;;;;;;;4.12;100.00;148698.64;1703568;82;21123;-58
2021/12/14 08:44:40;;;;;;;18.12;9.65;;;;;;;4.19;100.00;148716.70;1707056;82;21083;-58
2021/12/14 08:47:11;;;;;;;17.98;9.60;;;;;;;4.25;100.00;148732.19;1702127;82;21099;-57
2021/12/14 08:49:38;;;;;;;30.37;9.85;;;;;;;4.30;100.00;148743.81;1706544;82;21162;-58
2021/12/14 08:52:06;;;;;;;42.60;11.48;;;;;;;4.31;100.00;148746.41;1683934;83;21641;-59
2021/12/14 08:54:35;;;;;;;19.73;8.50;;;;;;;4.34;100.00;148752.87;1711094;81;21744;-59
2021/12/14 08:57:10;;;;;;;17.70;8.43;;;;;;;4.34;100.00;148754.14;1706210;82;21773;-58
2021/12/14 08:59:38;;;;;;;17.45;8.93;;;;;;;4.37;100.00;148760.62;1703892;82;21047;-58
2021/12/14 09:02:07;;;;;;;15.90;8.88;;;;;;;4.38;100.00;148764.47;1716133;81;21070;-58
2021/12/14 09:04:39;;;;;;;21.10;8.78;;;;;;;4.44;100.00;148780.00;1716000;81;21051;-58
2021/12/14 09:07:14;;;;;;;16.97;8.95;;;;;;;4.49;100.00;148791.59;1676964;82;20979;-59
2021/12/14 09:09:42;;;;;;;22.15;8.50;;;;;;;4.52;100.00;148799.34;1714606;81;21090;-58
2021/12/14 09:12:32;;;;;;;37.88;8.95;;;;;;;4.52;100.00;148799.34;1684282;83;21627;-58
2021/12/14 09:15:09;;;;;;;25.05;7.25;;;;;;;4.53;100.00;148801.97;1680103;83;21068;-58
2021/12/14 09:17:37;;;;;;;11.20;5.80;;;;;;;4.53;100.00;148800.66;1707418;82;21549;-58
2021/12/14 09:20:12;;;;;;;14.80;6.42;;;;;;;4.47;98.73;148786.44;1684043;83;21145;-58
2021/12/14 09:22:42;;;;;;;13.58;6.92;;;;;;;4.43;98.72;148776.11;1687458;83;21307;-58
2021/12/14 09:25:13;;;;;;;21.00;8.08;;;;;;;4.40;98.92;148769.63;1707805;81;21628;-59
2021/12/14 09:27:40;;;;;;;30.62;7.17;;;;;;;4.40;98.98;148768.38;1712489;81;21674;-58
2021/12/14 09:30:09;;;;;;;17.10;6.83;;;;;;;4.40;99.99;148768.38;1714704;81;21704;-59
2021/12/14 09:32:37;;;;;;;12.63;7.08;;;;;;;4.42;99.71;148773.53;1708890;82;21883;-60
2021/12/14 09:35:08;;;;;;;20.15;6.92;;;;;;;4.42;98.46;148773.53;1681067;83;21133;-57
2021/12/14 09:37:35;;;;;;;26.00;7.75;;;;;;;4.41;99.06;148770.94;1664755;84;21179;-58
2021/12/14 09:40:14;;;;;;;29.02;7.28;;;;;;;4.41;100.00;148770.94;1700279;82;21081;-58
2021/12/14 09:42:41;;;;;;;14.93;6.75;;;;;;;4.44;100.00;148778.69;1745008;80;21107;-54
2021/12/14 09:45:22;;;;;;;15.63;8.10;;;;;;;4.43;98.62;148776.11;1735556;80;21474;-54
2021/12/14 09:47:49;;;;;;;9.95;6.25;;;;;;;4.46;100.00;148783.84;1708610;80;21053;-55
2021/12/14 09:50:22;;;;;;;14.85;6.37;;;;;;;4.47;100.00;148786.44;1742397;80;21093;-55
2021/12/14 09:52:49;;;;;;;10.95;6.15;;;;;;;4.47;99.60;148785.17;1730101;80;21099;-55
2021/12/14 09:55:21;;;;;;;12.43;6.30;;;;;;;4.46;99.25;148783.84;1737799;80;21081;-54
2021/12/14 09:57:52;;;;;;;17.00;5.95;;;;;;;4.44;99.20;148778.69;1742925;80;21091;-55
2021/12/14 10:00:27;;;;;;;11.63;5.72;;;;;;;4.46;99.44;148783.84;1737738;80;21123;-54
2021/12/14 10:02:55;;;;;;;26.65;6.37;;;;;;;4.45;98.99;148781.27;1741537;80;21068;-56
2021/12/14 10:05:39;;;;;;;19.35;5.95;;;;;;;4.39;98.12;148765.78;1734893;80;21095;-55
2021/12/14 10:08:17;;;;;;;15.58;6.47;;;;;;;4.37;99.16;148761.89;1706554;80;21915;-53
2021/12/14 10:10:52;;;;;;;20.43;6.65;;;;;;;4.35;100.00;148755.47;1740349;80;21135;-55
2021/12/14 10:13:20;;;;;;;20.25;6.72;;;;;;;4.35;100.00;148756.73;1740325;80;21966;-54
2021/12/14 10:15:51;;;;;;;10.20;5.85;;;;;;;4.32;100.00;148747.72;1735357;80;21493;-54
2021/12/14 10:18:29;;;;;;;14.28;6.42;;;;;;;4.27;100.00;148737.34;1737853;80;21070;-54
2021/12/14 10:21:07;;;;;;;20.77;7.53;;;;;;;4.26;100.00;148733.50;1741629;80;21111;-54
2021/12/14 10:23:35;;;;;;;16.07;6.87;;;;;;;4.23;100.00;148725.77;1737228;80;21893;-55
2021/12/14 10:26:03;;;;;;;14.95;7.58;;;;;;;4.22;100.00;148723.17;1736332;80;21652;-54
2021/12/14 10:28:33;;;;;;;16.62;7.75;;;;;;;4.22;100.00;148723.17;1742050;80;21426;-56
2021/12/14 10:31:06;;;;;;;12.05;6.72;;;;;;;4.19;100.00;148716.70;1736196;80;21002;-54
2021/12/14 10:33:33;;;;;;;16.35;7.35;;;;;;;4.15;100.00;148707.66;1745074;80;21314;-57
2021/12/14 10:36:12;;;;;;;14.80;7.78;;;;;;;4.14;100.00;148703.80;1706498;82;21151;-54
2021/12/14 10:39:00;;;;;;;15.38;7.47;;;;;;;4.11;100.00;148696.06;1708451;82;21122;-54
2021/12/14 10:43:58;;;;;;;17.20;7.83;;;;;;;4.08;100.00;148689.58;1710135;82;21585;-56
2021/12/14 10:46:37;;;;;;;16.57;7.70;;;;;;;4.06;100.00;148683.11;1743466;80;21046;-54
2021/12/14 10:49:04;;;;;;;23.85;7.75;;;;;;;4.05;100.00;148680.53;1743712;80;22296;-57
2021/12/14 10:51:35;;;;;;;15.80;7.72;;;;;;;4.07;100.00;148685.69;1751748;80;20968;-57
2021/12/14 10:54:03;;;;;;;17.50;7.10;;;;;;;4.07;100.00;148685.69;1746376;80;21063;-54
2021/12/14 10:56:40;;;;;;;29.37;8.53;;;;;;;4.05;100.00;148681.84;1742207;80;21139;-55
2021/12/14 10:59:11;;;;;;;23.45;7.70;;;;;;;4.07;100.00;148685.69;1744103;80;21210;-55
2021/12/14 11:01:39;;;;;;;23.62;9.20;;;;;;;4.07;100.00;148687.00;1738478;80;21925;-56
2021/12/14 11:04:10;;;;;;;19.70;7.70;;;;;;;4.08;100.00;148688.27;1740399;80;21825;-55
2021/12/14 11:06:42;;;;;;;25.30;8.65;;;;;;;4.09;100.00;148692.16;1741348;80;21095;-54
2021/12/14 11:11:49;;;;;;;21.35;7.72;;;;;;;4.09;100.00;148690.84;1739219;80;21100;-54
2021/12/14 11:14:26;;;;;;;19.12;8.30;;;;;;;4.08;100.00;148689.58;1740905;80;21831;-54
2021/12/14 11:19:51;;;;;;;18.87;8.20;;;;;;;4.11;100.00;148696.06;1742009;80;21101;-55
2021/12/14 11:22:26;;;;;;;28.77;9.33;;;;;;;4.16;100.00;148708.97;1740010;80;22183;-55
2021/12/14 11:25:02;;;;;;;;;;;;;;;4.21;100.00;148720.59;1746833;80;21045;-55
2021/12/14 11:27:34;;;;;;;33.40;9.33;;;;;;;4.26;100.00;148734.77;1751624;80;21737;-54
2021/12/14 11:30:18;;;;;;;17.57;8.10;;;;;;;4.30;100.00;148743.81;1744381;80;21079;-53
2021/12/14 11:33:13;;;;;;;17.90;8.50;;;;;;;4.32;100.00;148747.72;1743339;80;28201;-58
2021/12/14 11:35:45;;;;;;;49.38;10.03;;;;;;;4.33;100.00;148750.30;1747119;80;22662;-59
2021/12/14 11:38:42;;;;;;;20.12;7.65;;;;;;;4.33;100.00;148750.30;1742388;80;21813;-59
2021/12/14 11:41:39;;;;;;;23.42;8.60;;;;;;;4.33;100.00;148750.30;1749976;80;21095;-59
2021/12/14 11:44:26;;;;;;;21.10;8.83;;;;;;;4.32;100.00;148748.98;1707136;80;21097;-55
2021/12/14 11:47:46;;;;;;;26.93;8.40;;;;;;;4.29;100.00;148742.50;1742575;80;21081;-54
2021/12/14 11:50:23;;;;;;;30.75;9.03;;;;;;;4.29;100.00;148741.25;1732707;80;21508;-54
2021/12/14 11:53:14;;;;;;;13.28;7.40;;;;;;;4.27;100.00;148737.34;1741459;80;21115;-54
2021/12/14 11:56:01;;;;;;;17.07;8.10;;;;;;;4.27;100.00;148737.34;1744182;80;21968;-54
2021/12/14 11:58:38;;;;;;;25.05;8.58;;;;;;;4.28;100.00;148739.94;1694151;80;21371;-54
2021/12/14 12:01:26;;;;;;;16.82;8.23;;;;;;;4.33;100.00;148751.56;1744015;80;21047;-54
2021/12/14 12:04:10;;;;;;;18.45;9.05;;;;;;;4.35;100.00;148755.47;1741510;80;21052;-54
2021/12/14 12:09:31;;;;;;;20.12;8.00;;;;;;;4.38;99.09;148763.20;1746174;80;21145;-54
2021/12/14 12:12:09;;;;;;;13.10;8.03;;;;;;;4.39;98.72;148765.78;1747428;80;21056;-54
2021/12/14 12:15:18;;;;;;;13.95;7.72;;;;;;;4.40;99.11;148768.38;1748133;80;21140;-55
2021/12/14 12:18:00;;;;;;;20.05;7.53;;;;;;;4.41;97.97;148770.94;1741535;80;21092;-54
2021/12/14 12:20:46;;;;;;;24.67;8.10;;;;;;;4.44;98.41;148778.69;1741351;80;20972;-59
2021/12/14 12:23:17;;;;;;;14.05;6.58;;;;;;;4.46;99.84;148783.84;1748064;80;20984;-59
2021/12/14 12:25:57;;;;;;;19.65;6.87;;;;;;;4.43;97.93;148776.11;1738733;80;21582;-60
2021/12/14 12:28:28;;;;;;;16.50;5.97;;;;;;;4.40;98.43;148768.38;1741823;80;21083;-59